Atoka, Tennessee
Current Conditions -  °F | °C
As of 2:55 PM on Tuesday 21 Oct 2014 (Local Time) from KNQA Reporting Station
Clear Clear  
Wind Chill: 77°   Ceiling: Unl
Heat Index: 78°   Visibility: 10mi
Dew Point: 48°   Wind: 3mph
Humidity: 36%   Direction: NA
Pressure: 30.05"   Gusts: NA
Location:  35.44°N, 89.78°W
Report Text: KNQA 211955Z VRB03KT 10SM SKC 25/09 A3005
Loading
Personal Weather Stations






























Interactive Weather Map
Tropical Storm Tracking
New forecast layout! Learn more

10-Day Weather Forecast

Advertisements
Track Severe Weather on mobile